sensor_id;sensor_type;location;lat;lon;timestamp;temperature;humidity
76120;DHT22;64852;48.092;-1.640;2023-12-29T00:01:23;11.30;99.90
76120;DHT22;64852;48.092;-1.640;2023-12-29T00:03:49;11.50;99.90
76120;DHT22;64852;48.092;-1.640;2023-12-29T00:06:14;12.20;99.90
76120;DHT22;64852;48.092;-1.640;2023-12-29T00:08:40;11.40;99.90
76120;DHT22;64852;48.092;-1.640;2023-12-29T00:11:05;11.40;99.90
76120;DHT22;64852;48.092;-1.640;2023-12-29T00:13:31;11.40;99.90
76120;DHT22;64852;48.092;-1.640;2023-12-29T00:15:57;11.60;99.90
76120;DHT22;64852;48.092;-1.640;2023-12-29T00:18:22;11.60;99.90
76120;DHT22;64852;48.092;-1.640;2023-12-29T00:20:49;11.60;99.90
76120;DHT22;64852;48.092;-1.640;2023-12-29T00:23:15;11.60;99.90
76120;DHT22;64852;48.092;-1.640;2023-12-29T00:25:40;12.10;99.90
76120;DHT22;64852;48.092;-1.640;2023-12-29T00:28:06;11.70;99.90
76120;DHT22;64852;48.092;-1.640;2023-12-29T00:30:32;11.70;99.90
76120;DHT22;64852;48.092;-1.640;2023-12-29T00:32:58;11.80;99.90
76120;DHT22;64852;48.092;-1.640;2023-12-29T00:35:23;12.10;99.90
76120;DHT22;64852;48.092;-1.640;2023-12-29T00:37:52;11.80;99.90
76120;DHT22;64852;48.092;-1.640;2023-12-29T00:40:17;11.90;99.90
76120;DHT22;64852;48.092;-1.640;2023-12-29T00:42:43;12.30;99.90
76120;DHT22;64852;48.092;-1.640;2023-12-29T00:45:09;12.00;99.90
76120;DHT22;64852;48.092;-1.640;2023-12-29T00:47:35;12.00;99.90
76120;DHT22;64852;48.092;-1.640;2023-12-29T00:50:01;11.90;99.90
76120;DHT22;64852;48.092;-1.640;2023-12-29T00:52:27;12.00;99.90
76120;DHT22;64852;48.092;-1.640;2023-12-29T00:54:53;11.90;99.90
76120;DHT22;64852;48.092;-1.640;2023-12-29T00:57:18;12.00;99.90
76120;DHT22;64852;48.092;-1.640;2023-12-29T00:59:46;12.10;99.90
76120;DHT22;64852;48.092;-1.640;2023-12-29T01:02:12;12.00;99.90
76120;DHT22;64852;48.092;-1.640;2023-12-29T01:04:38;12.10;99.90
76120;DHT22;64852;48.092;-1.640;2023-12-29T01:07:07;12.40;99.90
76120;DHT22;64852;48.092;-1.640;2023-12-29T01:09:37;12.10;99.90
76120;DHT22;64852;48.092;-1.640;2023-12-29T01:12:04;12.20;99.90
76120;DHT22;64852;48.092;-1.640;2023-12-29T01:14:29;12.10;99.90
76120;DHT22;64852;48.092;-1.640;2023-12-29T01:16:55;12.10;99.90
76120;DHT22;64852;48.092;-1.640;2023-12-29T01:19:20;12.20;99.90
76120;DHT22;64852;48.092;-1.640;2023-12-29T01:21:46;12.20;99.90
76120;DHT22;64852;48.092;-1.640;2023-12-29T01:24:12;12.20;99.90
76120;DHT22;64852;48.092;-1.640;2023-12-29T01:26:38;12.20;99.90
76120;DHT22;64852;48.092;-1.640;2023-12-29T01:29:04;12.20;99.90
76120;DHT22;64852;48.092;-1.640;2023-12-29T01:31:30;12.40;99.90
76120;DHT22;64852;48.092;-1.640;2023-12-29T01:33:56;12.30;99.90
76120;DHT22;64852;48.092;-1.640;2023-12-29T01:36:21;12.20;99.90
76120;DHT22;64852;48.092;-1.640;2023-12-29T01:38:47;12.10;99.90
76120;DHT22;64852;48.092;-1.640;2023-12-29T01:41:13;12.20;99.90
76120;DHT22;64852;48.092;-1.640;2023-12-29T01:46:29;12.20;99.90
76120;DHT22;64852;48.092;-1.640;2023-12-29T01:48:55;12.30;99.90
76120;DHT22;64852;48.092;-1.640;2023-12-29T01:51:22;12.80;99.90
76120;DHT22;64852;48.092;-1.640;2023-12-29T01:53:49;12.20;99.90
76120;DHT22;64852;48.092;-1.640;2023-12-29T01:56:16;12.20;99.90
76120;DHT22;64852;48.092;-1.640;2023-12-29T01:58:43;12.40;99.90
76120;DHT22;64852;48.092;-1.640;2023-12-29T02:01:09;12.20;99.90
76120;DHT22;64852;48.092;-1.640;2023-12-29T02:03:35;12.20;99.90
76120;DHT22;64852;48.092;-1.640;2023-12-29T02:06:01;12.20;99.90
76120;DHT22;64852;48.092;-1.640;2023-12-29T02:08:27;12.10;99.90
76120;DHT22;64852;48.092;-1.640;2023-12-29T02:10:55;12.20;99.90
76120;DHT22;64852;48.092;-1.640;2023-12-29T02:13:20;12.20;99.90
76120;DHT22;64852;48.092;-1.640;2023-12-29T02:15:49;12.20;99.90
76120;DHT22;64852;48.092;-1.640;2023-12-29T02:18:17;12.10;99.90
76120;DHT22;64852;48.092;-1.640;2023-12-29T02:20:44;12.00;99.90
76120;DHT22;64852;48.092;-1.640;2023-12-29T02:23:09;12.00;99.90
76120;DHT22;64852;48.092;-1.640;2023-12-29T02:25:35;12.10;99.90
76120;DHT22;64852;48.092;-1.640;2023-12-29T02:28:13;12.00;99.90
76120;DHT22;64852;48.092;-1.640;2023-12-29T02:33:19;12.10;99.90
76120;DHT22;64852;48.092;-1.640;2023-12-29T02:35:45;12.10;99.90
76120;DHT22;64852;48.092;-1.640;2023-12-29T02:38:12;11.90;99.90
76120;DHT22;64852;48.092;-1.640;2023-12-29T02:40:38;12.40;99.90
76120;DHT22;64852;48.092;-1.640;2023-12-29T02:43:04;11.90;99.90
76120;DHT22;64852;48.092;-1.640;2023-12-29T02:45:30;12.00;99.90
76120;DHT22;64852;48.092;-1.640;2023-12-29T02:47:55;12.00;99.90
76120;DHT22;64852;48.092;-1.640;2023-12-29T02:50:21;12.60;99.90
76120;DHT22;64852;48.092;-1.640;2023-12-29T02:52:46;12.00;99.90
76120;DHT22;64852;48.092;-1.640;2023-12-29T02:55:12;11.90;99.90
76120;DHT22;64852;48.092;-1.640;2023-12-29T02:57:39;11.80;99.90
76120;DHT22;64852;48.092;-1.640;2023-12-29T03:00:05;11.90;99.90
76120;DHT22;64852;48.092;-1.640;2023-12-29T03:02:31;11.80;99.90
76120;DHT22;64852;48.092;-1.640;2023-12-29T03:04:58;11.80;99.90
76120;DHT22;64852;48.092;-1.640;2023-12-29T03:07:23;11.90;99.90
76120;DHT22;64852;48.092;-1.640;2023-12-29T03:09:49;11.80;99.90
76120;DHT22;64852;48.092;-1.640;2023-12-29T03:12:15;11.80;99.90
76120;DHT22;64852;48.092;-1.640;2023-12-29T03:14:40;11.80;99.90
76120;DHT22;64852;48.092;-1.640;2023-12-29T03:17:06;11.80;99.90
76120;DHT22;64852;48.092;-1.640;2023-12-29T03:19:31;11.70;99.90
76120;DHT22;64852;48.092;-1.640;2023-12-29T03:21:57;11.90;99.90
76120;DHT22;64852;48.092;-1.640;2023-12-29T03:24:22;11.80;99.90
76120;DHT22;64852;48.092;-1.640;2023-12-29T03:26:48;11.80;99.90
76120;DHT22;64852;48.092;-1.640;2023-12-29T03:29:14;11.70;99.90
76120;DHT22;64852;48.092;-1.640;2023-12-29T03:31:39;11.80;99.90
76120;DHT22;64852;48.092;-1.640;2023-12-29T03:34:05;11.70;99.90
76120;DHT22;64852;48.092;-1.640;2023-12-29T03:36:31;11.60;99.90
76120;DHT22;64852;48.092;-1.640;2023-12-29T03:38:56;12.10;99.90
76120;DHT22;64852;48.092;-1.640;2023-12-29T03:41:22;11.50;99.90
76120;DHT22;64852;48.092;-1.640;2023-12-29T03:43:48;11.40;99.90
76120;DHT22;64852;48.092;-1.640;2023-12-29T03:46:20;11.40;99.90
76120;DHT22;64852;48.092;-1.640;2023-12-29T03:48:46;11.40;99.90
76120;DHT22;64852;48.092;-1.640;2023-12-29T03:51:11;11.40;99.90
76120;DHT22;64852;48.092;-1.640;2023-12-29T03:53:37;11.30;99.90
76120;DHT22;64852;48.092;-1.640;2023-12-29T03:56:08;11.20;99.90
76120;DHT22;64852;48.092;-1.640;2023-12-29T03:58:34;11.20;99.90
76120;DHT22;64852;48.092;-1.640;2023-12-29T04:01:00;11.60;99.90
76120;DHT22;64852;48.092;-1.640;2023-12-29T04:03:26;11.10;99.90
76120;DHT22;64852;48.092;-1.640;2023-12-29T04:05:51;12.00;99.90
76120;DHT22;64852;48.092;-1.640;2023-12-29T04:08:17;11.10;99.90
76120;DHT22;64852;48.092;-1.640;2023-12-29T04:10:42;11.10;99.90
76120;DHT22;64852;48.092;-1.640;2023-12-29T04:13:08;11.20;99.90
76120;DHT22;64852;48.092;-1.640;2023-12-29T04:15:33;11.10;99.90
76120;DHT22;64852;48.092;-1.640;2023-12-29T04:17:59;11.00;99.90
76120;DHT22;64852;48.092;-1.640;2023-12-29T04:20:24;11.00;99.90
76120;DHT22;64852;48.092;-1.640;2023-12-29T04:22:50;11.00;99.90
76120;DHT22;64852;48.092;-1.640;2023-12-29T04:25:16;10.90;99.90
76120;DHT22;64852;48.092;-1.640;2023-12-29T04:27:41;11.00;99.90
76120;DHT22;64852;48.092;-1.640;2023-12-29T04:30:07;10.90;99.90
76120;DHT22;64852;48.092;-1.640;2023-12-29T04:32:32;10.90;99.90
76120;DHT22;64852;48.092;-1.640;2023-12-29T04:34:58;10.90;99.90
76120;DHT22;64852;48.092;-1.640;2023-12-29T04:37:23;10.90;99.90
76120;DHT22;64852;48.092;-1.640;2023-12-29T04:39:49;11.00;99.90
76120;DHT22;64852;48.092;-1.640;2023-12-29T04:42:14;11.80;99.90
76120;DHT22;64852;48.092;-1.640;2023-12-29T04:44:40;11.20;99.90
76120;DHT22;64852;48.092;-1.640;2023-12-29T04:47:05;11.00;99.90
76120;DHT22;64852;48.092;-1.640;2023-12-29T04:49:31;12.00;99.90
76120;DHT22;64852;48.092;-1.640;2023-12-29T04:51:56;11.70;99.90
76120;DHT22;64852;48.092;-1.640;2023-12-29T04:54:23;11.10;99.90
76120;DHT22;64852;48.092;-1.640;2023-12-29T04:56:48;11.00;99.90
76120;DHT22;64852;48.092;-1.640;2023-12-29T04:59:14;11.00;99.90
76120;DHT22;64852;48.092;-1.640;2023-12-29T05:01:39;11.10;99.90
76120;DHT22;64852;48.092;-1.640;2023-12-29T05:04:05;11.10;99.90
76120;DHT22;64852;48.092;-1.640;2023-12-29T05:06:30;11.20;99.90
76120;DHT22;64852;48.092;-1.640;2023-12-29T05:08:56;11.10;99.90
76120;DHT22;64852;48.092;-1.640;2023-12-29T05:11:21;11.10;99.90
76120;DHT22;64852;48.092;-1.640;2023-12-29T05:13:47;11.10;99.90
76120;DHT22;64852;48.092;-1.640;2023-12-29T05:16:13;11.10;99.90
76120;DHT22;64852;48.092;-1.640;2023-12-29T05:18:38;11.30;99.90
76120;DHT22;64852;48.092;-1.640;2023-12-29T05:21:04;11.20;99.90
76120;DHT22;64852;48.092;-1.640;2023-12-29T05:23:29;11.20;99.90
76120;DHT22;64852;48.092;-1.640;2023-12-29T05:25:55;11.20;99.90
76120;DHT22;64852;48.092;-1.640;2023-12-29T05:28:20;11.30;99.90
76120;DHT22;64852;48.092;-1.640;2023-12-29T05:30:46;11.30;99.90
76120;DHT22;64852;48.092;-1.640;2023-12-29T05:33:12;11.30;99.90
76120;DHT22;64852;48.092;-1.640;2023-12-29T05:35:37;11.30;99.90
76120;DHT22;64852;48.092;-1.640;2023-12-29T05:38:03;11.40;99.90
76120;DHT22;64852;48.092;-1.640;2023-12-29T05:40:28;11.30;99.90
76120;DHT22;64852;48.092;-1.640;2023-12-29T05:42:54;11.40;99.90
76120;DHT22;64852;48.092;-1.640;2023-12-29T05:45:20;11.50;99.90
76120;DHT22;64852;48.092;-1.640;2023-12-29T05:47:45;11.40;99.90
76120;DHT22;64852;48.092;-1.640;2023-12-29T05:50:11;11.40;99.90
76120;DHT22;64852;48.092;-1.640;2023-12-29T05:52:36;11.40;99.90
76120;DHT22;64852;48.092;-1.640;2023-12-29T05:55:02;11.50;99.90
76120;DHT22;64852;48.092;-1.640;2023-12-29T05:57:28;11.50;99.90
76120;DHT22;64852;48.092;-1.640;2023-12-29T05:59:53;12.10;99.90
76120;DHT22;64852;48.092;-1.640;2023-12-29T06:02:19;12.30;99.90
76120;DHT22;64852;48.092;-1.640;2023-12-29T06:04:44;12.40;99.90
76120;DHT22;64852;48.092;-1.640;2023-12-29T06:07:10;11.40;99.90
76120;DHT22;64852;48.092;-1.640;2023-12-29T06:09:35;11.80;99.90
76120;DHT22;64852;48.092;-1.640;2023-12-29T06:12:01;12.00;99.90
76120;DHT22;64852;48.092;-1.640;2023-12-29T06:14:26;11.20;99.90
76120;DHT22;64852;48.092;-1.640;2023-12-29T06:16:52;11.30;99.90
76120;DHT22;64852;48.092;-1.640;2023-12-29T06:19:18;11.30;99.90
76120;DHT22;64852;48.092;-1.640;2023-12-29T06:21:43;12.10;99.90
76120;DHT22;64852;48.092;-1.640;2023-12-29T06:24:09;11.30;99.90
76120;DHT22;64852;48.092;-1.640;2023-12-29T06:26:35;11.10;99.90
76120;DHT22;64852;48.092;-1.640;2023-12-29T06:29:00;11.80;99.90
76120;DHT22;64852;48.092;-1.640;2023-12-29T06:31:26;12.00;99.90
76120;DHT22;64852;48.092;-1.640;2023-12-29T06:33:51;11.70;99.90
76120;DHT22;64852;48.092;-1.640;2023-12-29T06:36:17;11.80;99.90
76120;DHT22;64852;48.092;-1.640;2023-12-29T06:38:42;11.40;99.90
76120;DHT22;64852;48.092;-1.640;2023-12-29T06:41:13;11.20;99.90
76120;DHT22;64852;48.092;-1.640;2023-12-29T06:43:39;11.10;99.90
76120;DHT22;64852;48.092;-1.640;2023-12-29T06:46:04;11.10;99.90
76120;DHT22;64852;48.092;-1.640;2023-12-29T06:48:30;11.10;99.90
76120;DHT22;64852;48.092;-1.640;2023-12-29T06:50:55;11.20;99.90
76120;DHT22;64852;48.092;-1.640;2023-12-29T06:53:22;11.20;99.90
76120;DHT22;64852;48.092;-1.640;2023-12-29T06:55:47;11.10;99.90
76120;DHT22;64852;48.092;-1.640;2023-12-29T06:58:13;12.00;99.90
76120;DHT22;64852;48.092;-1.640;2023-12-29T07:00:38;11.80;99.90
76120;DHT22;64852;48.092;-1.640;2023-12-29T07:03:04;11.20;99.90
76120;DHT22;64852;48.092;-1.640;2023-12-29T07:05:29;11.10;99.90
76120;DHT22;64852;48.092;-1.640;2023-12-29T07:07:55;11.80;99.90
76120;DHT22;64852;48.092;-1.640;2023-12-29T07:10:20;11.10;99.90
76120;DHT22;64852;48.092;-1.640;2023-12-29T07:12:46;11.50;99.90
76120;DHT22;64852;48.092;-1.640;2023-12-29T07:15:11;11.20;99.90
76120;DHT22;64852;48.092;-1.640;2023-12-29T07:17:39;11.20;99.90
76120;DHT22;64852;48.092;-1.640;2023-12-29T07:20:05;11.20;99.90
76120;DHT22;64852;48.092;-1.640;2023-12-29T07:22:32;11.00;99.90
76120;DHT22;64852;48.092;-1.640;2023-12-29T07:24:58;11.10;99.90
76120;DHT22;64852;48.092;-1.640;2023-12-29T07:27:23;11.20;99.90
76120;DHT22;64852;48.092;-1.640;2023-12-29T07:29:49;11.20;99.90
76120;DHT22;64852;48.092;-1.640;2023-12-29T07:32:14;11.40;99.90
76120;DHT22;64852;48.092;-1.640;2023-12-29T07:34:40;11.10;99.90
76120;DHT22;64852;48.092;-1.640;2023-12-29T07:37:06;11.60;99.90
76120;DHT22;64852;48.092;-1.640;2023-12-29T07:39:31;12.10;99.90
76120;DHT22;64852;48.092;-1.640;2023-12-29T07:41:57;11.30;99.90
76120;DHT22;64852;48.092;-1.640;2023-12-29T07:44:22;11.20;99.90
76120;DHT22;64852;48.092;-1.640;2023-12-29T07:46:48;11.20;99.90
76120;DHT22;64852;48.092;-1.640;2023-12-29T07:49:13;11.20;99.90
76120;DHT22;64852;48.092;-1.640;2023-12-29T07:51:39;11.20;99.90
76120;DHT22;64852;48.092;-1.640;2023-12-29T07:54:06;11.20;99.90
76120;DHT22;64852;48.092;-1.640;2023-12-29T07:56:31;11.30;99.90
76120;DHT22;64852;48.092;-1.640;2023-12-29T07:58:57;11.20;99.90
76120;DHT22;64852;48.092;-1.640;2023-12-29T08:01:22;11.30;99.90
76120;DHT22;64852;48.092;-1.640;2023-12-29T08:03:48;11.40;99.90
76120;DHT22;64852;48.092;-1.640;2023-12-29T08:06:14;11.30;99.90
76120;DHT22;64852;48.092;-1.640;2023-12-29T08:08:40;11.30;99.90
76120;DHT22;64852;48.092;-1.640;2023-12-29T08:11:05;11.30;99.90
76120;DHT22;64852;48.092;-1.640;2023-12-29T08:13:31;11.20;99.90
76120;DHT22;64852;48.092;-1.640;2023-12-29T08:15:56;11.30;99.90
76120;DHT22;64852;48.092;-1.640;2023-12-29T08:18:22;11.30;99.90
76120;DHT22;64852;48.092;-1.640;2023-12-29T08:20:47;11.30;99.90
76120;DHT22;64852;48.092;-1.640;2023-12-29T08:23:13;11.20;99.90
76120;DHT22;64852;48.092;-1.640;2023-12-29T08:25:38;11.20;99.90
76120;DHT22;64852;48.092;-1.640;2023-12-29T08:28:04;11.20;99.90
76120;DHT22;64852;48.092;-1.640;2023-12-29T08:30:30;11.20;99.90
76120;DHT22;64852;48.092;-1.640;2023-12-29T08:32:56;11.20;99.90
76120;DHT22;64852;48.092;-1.640;2023-12-29T08:35:21;11.30;99.90
76120;DHT22;64852;48.092;-1.640;2023-12-29T08:37:47;11.30;99.90
76120;DHT22;64852;48.092;-1.640;2023-12-29T08:40:12;11.40;99.90
76120;DHT22;64852;48.092;-1.640;2023-12-29T08:42:38;11.30;99.90
76120;DHT22;64852;48.092;-1.640;2023-12-29T08:45:04;11.30;99.90
76120;DHT22;64852;48.092;-1.640;2023-12-29T08:47:30;11.40;99.90
76120;DHT22;64852;48.092;-1.640;2023-12-29T08:49:55;11.50;99.90
76120;DHT22;64852;48.092;-1.640;2023-12-29T08:52:21;11.50;99.90
76120;DHT22;64852;48.092;-1.640;2023-12-29T08:54:46;11.60;99.90
76120;DHT22;64852;48.092;-1.640;2023-12-29T08:57:12;11.70;99.90
76120;DHT22;64852;48.092;-1.640;2023-12-29T08:59:38;11.70;99.90
76120;DHT22;64852;48.092;-1.640;2023-12-29T09:02:03;11.80;99.90
76120;DHT22;64852;48.092;-1.640;2023-12-29T09:04:29;11.80;99.90
76120;DHT22;64852;48.092;-1.640;2023-12-29T09:06:54;11.90;99.90
76120;DHT22;64852;48.092;-1.640;2023-12-29T09:09:20;11.90;99.90
76120;DHT22;64852;48.092;-1.640;2023-12-29T09:11:46;11.90;99.90
76120;DHT22;64852;48.092;-1.640;2023-12-29T09:14:12;11.90;99.90
76120;DHT22;64852;48.092;-1.640;2023-12-29T09:16:38;12.00;99.90
76120;DHT22;64852;48.092;-1.640;2023-12-29T09:19:03;12.30;99.90
76120;DHT22;64852;48.092;-1.640;2023-12-29T09:21:29;12.00;99.90
76120;DHT22;64852;48.092;-1.640;2023-12-29T09:23:54;12.10;99.90
76120;DHT22;64852;48.092;-1.640;2023-12-29T09:26:20;12.00;99.90
76120;DHT22;64852;48.092;-1.640;2023-12-29T09:28:46;12.60;99.90
76120;DHT22;64852;48.092;-1.640;2023-12-29T09:31:12;12.20;99.90
76120;DHT22;64852;48.092;-1.640;2023-12-29T09:33:37;12.20;99.90
76120;DHT22;64852;48.092;-1.640;2023-12-29T09:36:03;12.30;99.90
76120;DHT22;64852;48.092;-1.640;2023-12-29T09:38:29;12.20;99.90
76120;DHT22;64852;48.092;-1.640;2023-12-29T09:40:55;12.50;99.90
76120;DHT22;64852;48.092;-1.640;2023-12-29T09:43:25;12.30;99.90
76120;DHT22;64852;48.092;-1.640;2023-12-29T09:45:50;12.40;99.90
76120;DHT22;64852;48.092;-1.640;2023-12-29T09:48:17;12.40;99.90
76120;DHT22;64852;48.092;-1.640;2023-12-29T09:50:44;12.60;99.90
76120;DHT22;64852;48.092;-1.640;2023-12-29T09:53:10;12.60;99.90
76120;DHT22;64852;48.092;-1.640;2023-12-29T09:55:38;12.60;99.90
76120;DHT22;64852;48.092;-1.640;2023-12-29T09:58:05;12.70;99.90
76120;DHT22;64852;48.092;-1.640;2023-12-29T10:00:33;12.70;99.90
76120;DHT22;64852;48.092;-1.640;2023-12-29T10:03:00;12.70;99.90
76120;DHT22;64852;48.092;-1.640;2023-12-29T10:05:26;12.60;99.90
76120;DHT22;64852;48.092;-1.640;2023-12-29T10:07:51;12.70;99.90
76120;DHT22;64852;48.092;-1.640;2023-12-29T10:10:20;12.60;99.90
76120;DHT22;64852;48.092;-1.640;2023-12-29T10:12:48;12.60;99.90
76120;DHT22;64852;48.092;-1.640;2023-12-29T10:15:34;12.70;99.90
76120;DHT22;64852;48.092;-1.640;2023-12-29T10:18:21;12.80;99.90
76120;DHT22;64852;48.092;-1.640;2023-12-29T10:23:17;12.80;99.90
76120;DHT22;64852;48.092;-1.640;2023-12-29T10:25:44;12.80;99.90
76120;DHT22;64852;48.092;-1.640;2023-12-29T10:28:10;13.00;99.90
76120;DHT22;64852;48.092;-1.640;2023-12-29T10:30:35;13.10;99.90
76120;DHT22;64852;48.092;-1.640;2023-12-29T10:33:04;13.10;99.90
76120;DHT22;64852;48.092;-1.640;2023-12-29T10:35:30;13.10;99.90
76120;DHT22;64852;48.092;-1.640;2023-12-29T10:38:08;13.10;99.90
76120;DHT22;64852;48.092;-1.640;2023-12-29T10:40:35;13.10;99.90
76120;DHT22;64852;48.092;-1.640;2023-12-29T10:43:00;13.10;99.90
76120;DHT22;64852;48.092;-1.640;2023-12-29T10:45:32;13.10;99.90
76120;DHT22;64852;48.092;-1.640;2023-12-29T10:48:00;13.10;99.90
76120;DHT22;64852;48.092;-1.640;2023-12-29T10:50:25;13.10;99.90
76120;DHT22;64852;48.092;-1.640;2023-12-29T10:53:10;13.10;99.90
76120;DHT22;64852;48.092;-1.640;2023-12-29T10:55:35;13.10;99.90
76120;DHT22;64852;48.092;-1.640;2023-12-29T10:58:01;13.10;99.90
76120;DHT22;64852;48.092;-1.640;2023-12-29T11:00:29;13.10;99.90
76120;DHT22;64852;48.092;-1.640;2023-12-29T11:02:56;13.20;99.90
76120;DHT22;64852;48.092;-1.640;2023-12-29T11:05:25;13.30;99.90
76120;DHT22;64852;48.092;-1.640;2023-12-29T11:07:51;13.30;99.90
76120;DHT22;64852;48.092;-1.640;2023-12-29T11:10:20;13.30;99.90
76120;DHT22;64852;48.092;-1.640;2023-12-29T11:12:46;13.30;99.90
76120;DHT22;64852;48.092;-1.640;2023-12-29T11:15:13;13.30;99.90
76120;DHT22;64852;48.092;-1.640;2023-12-29T11:17:41;13.30;99.90
76120;DHT22;64852;48.092;-1.640;2023-12-29T11:20:16;13.40;99.90
76120;DHT22;64852;48.092;-1.640;2023-12-29T11:22:43;13.50;99.90
76120;DHT22;64852;48.092;-1.640;2023-12-29T11:25:11;13.60;99.90
76120;DHT22;64852;48.092;-1.640;2023-12-29T11:27:38;13.60;99.90
76120;DHT22;64852;48.092;-1.640;2023-12-29T11:30:04;13.60;99.90
76120;DHT22;64852;48.092;-1.640;2023-12-29T11:36:17;13.90;99.90
76120;DHT22;64852;48.092;-1.640;2023-12-29T11:41:39;13.90;99.90
76120;DHT22;64852;48.092;-1.640;2023-12-29T11:44:06;13.80;99.90
76120;DHT22;64852;48.092;-1.640;2023-12-29T11:46:33;13.80;99.90
76120;DHT22;64852;48.092;-1.640;2023-12-29T11:48:59;13.70;99.90
76120;DHT22;64852;48.092;-1.640;2023-12-29T11:51:42;13.70;99.90
76120;DHT22;64852;48.092;-1.640;2023-12-29T11:54:09;13.60;99.90
76120;DHT22;64852;48.092;-1.640;2023-12-29T11:56:43;13.70;99.90
76120;DHT22;64852;48.092;-1.640;2023-12-29T11:59:18;13.70;99.90
76120;DHT22;64852;48.092;-1.640;2023-12-29T12:01:47;13.60;99.90
76120;DHT22;64852;48.092;-1.640;2023-12-29T12:04:48;13.70;99.90
76120;DHT22;64852;48.092;-1.640;2023-12-29T12:09:47;13.90;99.90
76120;DHT22;64852;48.092;-1.640;2023-12-29T12:12:14;13.80;99.90
76120;DHT22;64852;48.092;-1.640;2023-12-29T12:15:00;13.70;99.90
76120;DHT22;64852;48.092;-1.640;2023-12-29T12:17:32;13.70;99.90
76120;DHT22;64852;48.092;-1.640;2023-12-29T12:20:06;13.60;99.90
76120;DHT22;64852;48.092;-1.640;2023-12-29T12:22:33;13.60;99.90
76120;DHT22;64852;48.092;-1.640;2023-12-29T12:25:01;13.60;99.90
76120;DHT22;64852;48.092;-1.640;2023-12-29T12:27:28;13.60;99.90
76120;DHT22;64852;48.092;-1.640;2023-12-29T12:29:56;13.50;99.90
76120;DHT22;64852;48.092;-1.640;2023-12-29T12:32:24;13.40;99.90
76120;DHT22;64852;48.092;-1.640;2023-12-29T12:34:50;13.40;99.90
76120;DHT22;64852;48.092;-1.640;2023-12-29T12:37:23;13.40;99.90
76120;DHT22;64852;48.092;-1.640;2023-12-29T12:39:49;13.50;99.90
76120;DHT22;64852;48.092;-1.640;2023-12-29T12:42:19;13.40;99.90
76120;DHT22;64852;48.092;-1.640;2023-12-29T12:44:49;13.40;99.90
76120;DHT22;64852;48.092;-1.640;2023-12-29T12:47:24;13.40;99.90
76120;DHT22;64852;48.092;-1.640;2023-12-29T12:49:51;13.40;99.90
76120;DHT22;64852;48.092;-1.640;2023-12-29T12:52:17;13.40;99.90
76120;DHT22;64852;48.092;-1.640;2023-12-29T12:54:42;13.40;99.90
76120;DHT22;64852;48.092;-1.640;2023-12-29T12:57:08;13.50;99.90
76120;DHT22;64852;48.092;-1.640;2023-12-29T12:59:34;13.50;99.90
76120;DHT22;64852;48.092;-1.640;2023-12-29T13:01:59;13.60;99.90
76120;DHT22;64852;48.092;-1.640;2023-12-29T13:04:25;13.70;99.90
76120;DHT22;64852;48.092;-1.640;2023-12-29T13:06:52;13.60;99.90
76120;DHT22;64852;48.092;-1.640;2023-12-29T13:09:18;13.60;99.90
76120;DHT22;64852;48.092;-1.640;2023-12-29T13:11:45;13.60;99.90
76120;DHT22;64852;48.092;-1.640;2023-12-29T13:14:28;13.50;99.90
76120;DHT22;64852;48.092;-1.640;2023-12-29T13:16:54;13.50;99.90
76120;DHT22;64852;48.092;-1.640;2023-12-29T13:19:24;13.50;99.90
76120;DHT22;64852;48.092;-1.640;2023-12-29T13:21:53;13.40;99.90
76120;DHT22;64852;48.092;-1.640;2023-12-29T13:24:22;13.40;99.90
76120;DHT22;64852;48.092;-1.640;2023-12-29T13:26:50;13.30;99.90
76120;DHT22;64852;48.092;-1.640;2023-12-29T13:29:26;13.30;99.90
76120;DHT22;64852;48.092;-1.640;2023-12-29T13:31:59;13.20;99.90
76120;DHT22;64852;48.092;-1.640;2023-12-29T13:34:31;13.20;99.90
76120;DHT22;64852;48.092;-1.640;2023-12-29T13:37:05;13.10;99.90
76120;DHT22;64852;48.092;-1.640;2023-12-29T13:39:41;13.10;99.90
76120;DHT22;64852;48.092;-1.640;2023-12-29T13:42:08;13.10;99.90
76120;DHT22;64852;48.092;-1.640;2023-12-29T13:44:36;13.00;99.90
76120;DHT22;64852;48.092;-1.640;2023-12-29T13:47:02;13.10;99.90
76120;DHT22;64852;48.092;-1.640;2023-12-29T13:49:28;13.20;99.90
76120;DHT22;64852;48.092;-1.640;2023-12-29T13:51:53;13.10;99.90
76120;DHT22;64852;48.092;-1.640;2023-12-29T13:54:19;13.10;99.90
76120;DHT22;64852;48.092;-1.640;2023-12-29T13:56:51;13.20;99.90
76120;DHT22;64852;48.092;-1.640;2023-12-29T13:59:17;13.10;99.90
76120;DHT22;64852;48.092;-1.640;2023-12-29T14:01:42;13.00;99.90
76120;DHT22;64852;48.092;-1.640;2023-12-29T14:04:10;12.90;99.90
76120;DHT22;64852;48.092;-1.640;2023-12-29T14:06:43;12.80;99.90
76120;DHT22;64852;48.092;-1.640;2023-12-29T14:09:15;12.70;99.90
76120;DHT22;64852;48.092;-1.640;2023-12-29T14:11:48;12.70;99.90
76120;DHT22;64852;48.092;-1.640;2023-12-29T14:14:20;12.60;99.90
76120;DHT22;64852;48.092;-1.640;2023-12-29T14:16:46;12.30;99.90
76120;DHT22;64852;48.092;-1.640;2023-12-29T14:19:12;12.10;99.90
76120;DHT22;64852;48.092;-1.640;2023-12-29T14:21:37;11.90;99.90
76120;DHT22;64852;48.092;-1.640;2023-12-29T14:26:31;11.80;99.90
76120;DHT22;64852;48.092;-1.640;2023-12-29T14:29:08;11.70;99.90
76120;DHT22;64852;48.092;-1.640;2023-12-29T14:31:38;11.70;99.90
76120;DHT22;64852;48.092;-1.640;2023-12-29T14:34:05;11.70;99.90
76120;DHT22;64852;48.092;-1.640;2023-12-29T14:36:34;11.80;99.90
76120;DHT22;64852;48.092;-1.640;2023-12-29T14:39:00;11.90;99.90
76120;DHT22;64852;48.092;-1.640;2023-12-29T14:41:26;11.90;99.90
76120;DHT22;64852;48.092;-1.640;2023-12-29T14:43:52;11.80;99.90
76120;DHT22;64852;48.092;-1.640;2023-12-29T14:46:18;11.80;99.90
76120;DHT22;64852;48.092;-1.640;2023-12-29T14:48:44;11.90;99.90
76120;DHT22;64852;48.092;-1.640;2023-12-29T14:51:09;11.80;99.90
76120;DHT22;64852;48.092;-1.640;2023-12-29T14:53:35;11.70;99.90
76120;DHT22;64852;48.092;-1.640;2023-12-29T14:56:00;11.80;99.90
76120;DHT22;64852;48.092;-1.640;2023-12-29T14:58:26;11.90;99.90
76120;DHT22;64852;48.092;-1.640;2023-12-29T15:00:51;11.90;99.90
76120;DHT22;64852;48.092;-1.640;2023-12-29T15:03:17;11.80;99.90
76120;DHT22;64852;48.092;-1.640;2023-12-29T15:05:44;12.40;99.90
76120;DHT22;64852;48.092;-1.640;2023-12-29T15:08:11;11.80;99.90
76120;DHT22;64852;48.092;-1.640;2023-12-29T15:10:37;11.80;99.90
76120;DHT22;64852;48.092;-1.640;2023-12-29T15:13:02;11.90;99.90
76120;DHT22;64852;48.092;-1.640;2023-12-29T15:15:28;11.90;99.90
76120;DHT22;64852;48.092;-1.640;2023-12-29T15:17:53;11.90;99.90
76120;DHT22;64852;48.092;-1.640;2023-12-29T15:20:19;11.80;99.90
76120;DHT22;64852;48.092;-1.640;2023-12-29T15:22:44;11.80;99.90
76120;DHT22;64852;48.092;-1.640;2023-12-29T15:25:10;11.70;99.90
76120;DHT22;64852;48.092;-1.640;2023-12-29T15:27:36;11.70;99.90
76120;DHT22;64852;48.092;-1.640;2023-12-29T15:30:02;11.70;99.90
76120;DHT22;64852;48.092;-1.640;2023-12-29T15:32:27;11.50;99.90